sensor_id;sensor_type;location;lat;lon;timestamp;P1;durP1;ratioP1;P2;durP2;ratioP2
60233;SDS011;49514;43.538;-5.708;2022-12-10T13:05:23;4.10;;;1.05;;
60233;SDS011;49514;43.538;-5.708;2022-12-10T13:13:41;2.05;;;0.95;;
60233;SDS011;49514;43.538;-5.708;2022-12-10T13:24:08;2.13;;;0.80;;
60233;SDS011;49514;43.538;-5.708;2022-12-10T15:00:41;4.40;;;1.92;;
60233;SDS011;49514;43.538;-5.708;2022-12-10T15:03:09;4.55;;;2.30;;
60233;SDS011;49514;43.538;-5.708;2022-12-10T15:05:37;3.45;;;1.95;;
60233;SDS011;49514;43.538;-5.708;2022-12-10T15:08:05;8.77;;;2.67;;
60233;SDS011;49514;43.538;-5.708;2022-12-10T15:10:34;5.28;;;2.35;;
60233;SDS011;49514;43.538;-5.708;2022-12-10T15:13:01;5.35;;;1.88;;
60233;SDS011;49514;43.538;-5.708;2022-12-10T15:15:34;4.83;;;1.90;;
60233;SDS011;49514;43.538;-5.708;2022-12-10T15:50:41;4.68;;;1.50;;
60233;SDS011;49514;43.538;-5.708;2022-12-10T15:53:14;5.88;;;1.55;;
60233;SDS011;49514;43.538;-5.708;2022-12-10T15:55:51;4.95;;;1.40;;
60233;SDS011;49514;43.538;-5.708;2022-12-10T15:58:17;3.65;;;1.50;;
60233;SDS011;49514;43.538;-5.708;2022-12-10T16:00:44;4.72;;;1.50;;
60233;SDS011;49514;43.538;-5.708;2022-12-10T16:03:13;6.82;;;1.70;;
60233;SDS011;49514;43.538;-5.708;2022-12-10T16:05:43;4.18;;;1.40;;
60233;SDS011;49514;43.538;-5.708;2022-12-10T16:08:25;4.00;;;1.35;;
60233;SDS011;49514;43.538;-5.708;2022-12-10T16:10:54;6.15;;;1.60;;
60233;SDS011;49514;43.538;-5.708;2022-12-10T16:13:25;4.20;;;1.48;;
60233;SDS011;49514;43.538;-5.708;2022-12-10T16:15:55;6.25;;;1.67;;
60233;SDS011;49514;43.538;-5.708;2022-12-10T16:18:25;2.78;;;1.40;;
60233;SDS011;49514;43.538;-5.708;2022-12-10T16:20:52;3.10;;;1.83;;
60233;SDS011;49514;43.538;-5.708;2022-12-10T16:23:18;4.45;;;1.73;;
60233;SDS011;49514;43.538;-5.708;2022-12-10T16:25:45;3.75;;;1.52;;
60233;SDS011;49514;43.538;-5.708;2022-12-10T16:28:18;6.47;;;2.13;;
60233;SDS011;49514;43.538;-5.708;2022-12-10T16:30:47;6.18;;;2.60;;
60233;SDS011;49514;43.538;-5.708;2022-12-10T16:33:25;6.38;;;2.50;;
60233;SDS011;49514;43.538;-5.708;2022-12-10T16:35:53;5.28;;;2.83;;
60233;SDS011;49514;43.538;-5.708;2022-12-10T16:38:21;8.15;;;2.72;;
60233;SDS011;49514;43.538;-5.708;2022-12-10T16:40:48;9.48;;;3.00;;
60233;SDS011;49514;43.538;-5.708;2022-12-10T16:43:16;9.15;;;3.20;;
60233;SDS011;49514;43.538;-5.708;2022-12-10T16:45:46;6.53;;;3.08;;
60233;SDS011;49514;43.538;-5.708;2022-12-10T16:48:13;9.35;;;3.15;;
60233;SDS011;49514;43.538;-5.708;2022-12-10T16:50:41;6.95;;;3.10;;
60233;SDS011;49514;43.538;-5.708;2022-12-10T16:53:19;8.82;;;3.28;;
60233;SDS011;49514;43.538;-5.708;2022-12-10T16:55:49;8.05;;;3.97;;
60233;SDS011;49514;43.538;-5.708;2022-12-10T16:58:16;10.13;;;4.20;;
60233;SDS011;49514;43.538;-5.708;2022-12-10T17:00:44;10.07;;;4.10;;
60233;SDS011;49514;43.538;-5.708;2022-12-10T17:03:13;10.65;;;3.75;;
60233;SDS011;49514;43.538;-5.708;2022-12-10T17:08:18;9.00;;;3.38;;
60233;SDS011;49514;43.538;-5.708;2022-12-10T17:10:46;8.50;;;3.70;;
60233;SDS011;49514;43.538;-5.708;2022-12-10T17:13:33;10.63;;;3.30;;
60233;SDS011;49514;43.538;-5.708;2022-12-10T17:16:01;9.95;;;3.38;;
60233;SDS011;49514;43.538;-5.708;2022-12-10T17:18:29;8.25;;;4.13;;
60233;SDS011;49514;43.538;-5.708;2022-12-10T17:20:57;13.57;;;6.03;;
60233;SDS011;49514;43.538;-5.708;2022-12-10T17:23:24;26.05;;;11.70;;
60233;SDS011;49514;43.538;-5.708;2022-12-10T17:25:51;19.20;;;8.45;;
60233;SDS011;49514;43.538;-5.708;2022-12-10T17:28:19;21.58;;;6.82;;
60233;SDS011;49514;43.538;-5.708;2022-12-10T17:30:48;13.48;;;5.30;;
60233;SDS011;49514;43.538;-5.708;2022-12-10T17:33:16;12.88;;;5.03;;
60233;SDS011;49514;43.538;-5.708;2022-12-10T17:35:49;16.42;;;5.40;;
60233;SDS011;49514;43.538;-5.708;2022-12-10T17:38:24;16.00;;;5.53;;
60233;SDS011;49514;43.538;-5.708;2022-12-10T17:40:51;10.35;;;4.80;;
60233;SDS011;49514;43.538;-5.708;2022-12-10T17:43:22;11.18;;;4.88;;
60233;SDS011;49514;43.538;-5.708;2022-12-10T17:45:50;11.23;;;4.15;;
60233;SDS011;49514;43.538;-5.708;2022-12-10T17:48:17;15.52;;;4.95;;
60233;SDS011;49514;43.538;-5.708;2022-12-10T17:50:45;11.82;;;5.72;;
60233;SDS011;49514;43.538;-5.708;2022-12-10T17:53:13;9.80;;;4.68;;
60233;SDS011;49514;43.538;-5.708;2022-12-10T17:55:43;10.05;;;4.82;;
60233;SDS011;49514;43.538;-5.708;2022-12-10T17:58:11;8.80;;;4.47;;
60233;SDS011;49514;43.538;-5.708;2022-12-10T18:00:39;9.90;;;4.25;;
60233;SDS011;49514;43.538;-5.708;2022-12-10T18:03:06;11.55;;;4.10;;
60233;SDS011;49514;43.538;-5.708;2022-12-10T18:05:36;11.98;;;5.70;;
60233;SDS011;49514;43.538;-5.708;2022-12-10T18:08:04;11.25;;;4.80;;
60233;SDS011;49514;43.538;-5.708;2022-12-10T18:10:32;11.73;;;4.07;;
60233;SDS011;49514;43.538;-5.708;2022-12-10T18:13:00;11.75;;;4.20;;
60233;SDS011;49514;43.538;-5.708;2022-12-10T18:15:29;12.15;;;4.03;;
60233;SDS011;49514;43.538;-5.708;2022-12-10T18:17:58;11.15;;;4.45;;
60233;SDS011;49514;43.538;-5.708;2022-12-10T18:20:28;11.57;;;4.60;;
60233;SDS011;49514;43.538;-5.708;2022-12-10T18:23:01;12.05;;;4.80;;
60233;SDS011;49514;43.538;-5.708;2022-12-10T18:25:29;11.05;;;5.35;;
60233;SDS011;49514;43.538;-5.708;2022-12-10T18:27:59;16.35;;;4.93;;
60233;SDS011;49514;43.538;-5.708;2022-12-10T18:30:30;16.23;;;5.15;;
60233;SDS011;49514;43.538;-5.708;2022-12-10T18:32:57;14.65;;;5.57;;
60233;SDS011;49514;43.538;-5.708;2022-12-10T18:35:25;14.98;;;7.20;;
60233;SDS011;49514;43.538;-5.708;2022-12-10T18:37:55;19.83;;;6.28;;
60233;SDS011;49514;43.538;-5.708;2022-12-10T18:40:22;18.65;;;6.57;;
60233;SDS011;49514;43.538;-5.708;2022-12-10T18:42:49;32.17;;;7.63;;
60233;SDS011;49514;43.538;-5.708;2022-12-10T18:45:16;40.22;;;8.23;;
60233;SDS011;49514;43.538;-5.708;2022-12-10T18:47:44;30.92;;;6.95;;
60233;SDS011;49514;43.538;-5.708;2022-12-10T18:50:24;32.38;;;6.72;;
60233;SDS011;49514;43.538;-5.708;2022-12-10T18:52:52;28.00;;;6.20;;
60233;SDS011;49514;43.538;-5.708;2022-12-10T18:55:20;39.58;;;8.27;;
60233;SDS011;49514;43.538;-5.708;2022-12-10T18:57:49;35.92;;;7.20;;
60233;SDS011;49514;43.538;-5.708;2022-12-10T19:00:21;26.95;;;7.65;;
60233;SDS011;49514;43.538;-5.708;2022-12-10T19:05:17;31.08;;;6.40;;
60233;SDS011;49514;43.538;-5.708;2022-12-10T19:07:45;31.15;;;6.55;;
60233;SDS011;49514;43.538;-5.708;2022-12-10T19:10:16;29.42;;;7.05;;
60233;SDS011;49514;43.538;-5.708;2022-12-10T19:12:46;36.63;;;7.33;;
60233;SDS011;49514;43.538;-5.708;2022-12-10T19:15:14;45.83;;;9.13;;
60233;SDS011;49514;43.538;-5.708;2022-12-10T19:17:43;27.00;;;6.93;;
60233;SDS011;49514;43.538;-5.708;2022-12-10T19:20:13;19.50;;;5.80;;
60233;SDS011;49514;43.538;-5.708;2022-12-10T19:22:44;19.65;;;5.93;;
60233;SDS011;49514;43.538;-5.708;2022-12-10T19:25:11;29.77;;;6.20;;
60233;SDS011;49514;43.538;-5.708;2022-12-10T19:27:38;16.77;;;5.88;;
60233;SDS011;49514;43.538;-5.708;2022-12-10T19:30:06;18.33;;;5.47;;
60233;SDS011;49514;43.538;-5.708;2022-12-10T19:32:44;19.85;;;5.75;;
60233;SDS011;49514;43.538;-5.708;2022-12-10T19:35:12;16.58;;;5.43;;
60233;SDS011;49514;43.538;-5.708;2022-12-10T19:37:40;25.27;;;6.47;;
60233;SDS011;49514;43.538;-5.708;2022-12-10T19:40:14;21.85;;;6.88;;
60233;SDS011;49514;43.538;-5.708;2022-12-10T19:42:53;27.90;;;6.60;;
60233;SDS011;49514;43.538;-5.708;2022-12-10T19:45:20;27.08;;;6.70;;
60233;SDS011;49514;43.538;-5.708;2022-12-10T19:47:48;26.17;;;6.80;;
60233;SDS011;49514;43.538;-5.708;2022-12-10T19:50:20;19.08;;;6.20;;
60233;SDS011;49514;43.538;-5.708;2022-12-10T19:52:52;19.27;;;5.88;;
60233;SDS011;49514;43.538;-5.708;2022-12-10T19:55:19;19.60;;;5.93;;
60233;SDS011;49514;43.538;-5.708;2022-12-10T19:57:46;22.05;;;6.00;;
60233;SDS011;49514;43.538;-5.708;2022-12-10T20:00:17;26.00;;;6.65;;
60233;SDS011;49514;43.538;-5.708;2022-12-10T20:02:45;31.15;;;7.40;;
60233;SDS011;49514;43.538;-5.708;2022-12-10T20:05:12;31.20;;;7.10;;
60233;SDS011;49514;43.538;-5.708;2022-12-10T20:07:40;23.20;;;9.38;;
60233;SDS011;49514;43.538;-5.708;2022-12-10T20:10:07;14.55;;;6.68;;
60233;SDS011;49514;43.538;-5.708;2022-12-10T20:12:43;16.27;;;8.93;;
60233;SDS011;49514;43.538;-5.708;2022-12-10T20:15:11;10.00;;;5.57;;
60233;SDS011;49514;43.538;-5.708;2022-12-10T20:17:39;12.55;;;5.78;;
60233;SDS011;49514;43.538;-5.708;2022-12-10T20:20:06;13.30;;;6.30;;
60233;SDS011;49514;43.538;-5.708;2022-12-10T20:22:38;15.07;;;7.95;;
60233;SDS011;49514;43.538;-5.708;2022-12-10T20:25:05;13.85;;;6.57;;
60233;SDS011;49514;43.538;-5.708;2022-12-10T20:27:32;14.25;;;6.50;;
60233;SDS011;49514;43.538;-5.708;2022-12-10T20:29:58;20.00;;;6.90;;
60233;SDS011;49514;43.538;-5.708;2022-12-10T20:32:25;19.50;;;7.82;;
60233;SDS011;49514;43.538;-5.708;2022-12-10T20:34:52;20.42;;;7.32;;
60233;SDS011;49514;43.538;-5.708;2022-12-10T20:37:19;13.45;;;6.90;;
60233;SDS011;49514;43.538;-5.708;2022-12-10T20:39:46;21.80;;;7.05;;
60233;SDS011;49514;43.538;-5.708;2022-12-10T20:42:13;17.05;;;6.72;;
60233;SDS011;49514;43.538;-5.708;2022-12-10T20:44:41;15.68;;;6.20;;
60233;SDS011;49514;43.538;-5.708;2022-12-10T20:47:08;15.85;;;6.57;;
60233;SDS011;49514;43.538;-5.708;2022-12-10T20:49:36;14.88;;;6.93;;
60233;SDS011;49514;43.538;-5.708;2022-12-10T20:52:03;15.90;;;7.10;;
60233;SDS011;49514;43.538;-5.708;2022-12-10T20:54:30;15.07;;;6.35;;
60233;SDS011;49514;43.538;-5.708;2022-12-10T20:56:57;15.45;;;6.00;;
60233;SDS011;49514;43.538;-5.708;2022-12-10T20:59:24;14.23;;;6.47;;
60233;SDS011;49514;43.538;-5.708;2022-12-10T21:01:52;9.48;;;5.55;;
60233;SDS011;49514;43.538;-5.708;2022-12-10T21:04:20;11.20;;;6.38;;
60233;SDS011;49514;43.538;-5.708;2022-12-10T21:06:47;12.32;;;6.40;;
60233;SDS011;49514;43.538;-5.708;2022-12-10T21:09:14;10.82;;;6.22;;
60233;SDS011;49514;43.538;-5.708;2022-12-10T21:11:41;12.60;;;6.20;;
60233;SDS011;49514;43.538;-5.708;2022-12-10T21:14:08;14.73;;;6.55;;
60233;SDS011;49514;43.538;-5.708;2022-12-10T21:16:35;15.02;;;7.20;;
60233;SDS011;49514;43.538;-5.708;2022-12-10T21:19:02;14.13;;;6.47;;
60233;SDS011;49514;43.538;-5.708;2022-12-10T21:21:29;15.38;;;6.35;;
60233;SDS011;49514;43.538;-5.708;2022-12-10T21:23:56;15.32;;;6.40;;
60233;SDS011;49514;43.538;-5.708;2022-12-10T21:26:24;14.52;;;6.28;;
60233;SDS011;49514;43.538;-5.708;2022-12-10T21:28:52;16.55;;;6.70;;
60233;SDS011;49514;43.538;-5.708;2022-12-10T21:31:20;13.88;;;6.68;;
60233;SDS011;49514;43.538;-5.708;2022-12-10T21:33:50;13.23;;;6.72;;
60233;SDS011;49514;43.538;-5.708;2022-12-10T21:36:18;16.17;;;6.88;;
60233;SDS011;49514;43.538;-5.708;2022-12-10T21:38:47;15.57;;;6.95;;
60233;SDS011;49514;43.538;-5.708;2022-12-10T21:41:21;14.30;;;6.90;;
60233;SDS011;49514;43.538;-5.708;2022-12-10T21:44:08;13.20;;;6.80;;
60233;SDS011;49514;43.538;-5.708;2022-12-10T21:46:37;12.35;;;6.60;;
60233;SDS011;49514;43.538;-5.708;2022-12-10T21:49:04;18.98;;;6.70;;
60233;SDS011;49514;43.538;-5.708;2022-12-10T21:51:32;19.35;;;7.43;;
60233;SDS011;49514;43.538;-5.708;2022-12-10T21:53:59;25.08;;;7.28;;
60233;SDS011;49514;43.538;-5.708;2022-12-10T21:56:26;25.35;;;7.60;;
60233;SDS011;49514;43.538;-5.708;2022-12-10T21:58:54;22.95;;;8.20;;
60233;SDS011;49514;43.538;-5.708;2022-12-10T22:01:21;26.02;;;8.93;;
60233;SDS011;49514;43.538;-5.708;2022-12-10T22:03:49;24.10;;;8.20;;
60233;SDS011;49514;43.538;-5.708;2022-12-10T22:06:17;20.45;;;8.23;;
60233;SDS011;49514;43.538;-5.708;2022-12-10T22:08:51;18.58;;;7.72;;
60233;SDS011;49514;43.538;-5.708;2022-12-10T22:11:18;19.58;;;9.30;;
60233;SDS011;49514;43.538;-5.708;2022-12-10T22:13:45;21.08;;;9.48;;
60233;SDS011;49514;43.538;-5.708;2022-12-10T22:16:12;21.38;;;10.07;;
60233;SDS011;49514;43.538;-5.708;2022-12-10T22:18:38;22.80;;;8.13;;
60233;SDS011;49514;43.538;-5.708;2022-12-10T22:21:05;17.52;;;7.93;;
60233;SDS011;49514;43.538;-5.708;2022-12-10T22:23:32;24.08;;;8.55;;
60233;SDS011;49514;43.538;-5.708;2022-12-10T22:25:59;25.25;;;10.00;;
60233;SDS011;49514;43.538;-5.708;2022-12-10T22:28:33;23.77;;;10.05;;
60233;SDS011;49514;43.538;-5.708;2022-12-10T22:31:00;21.60;;;8.40;;
60233;SDS011;49514;43.538;-5.708;2022-12-10T22:33:30;17.90;;;7.93;;
60233;SDS011;49514;43.538;-5.708;2022-12-10T22:35:57;15.32;;;7.85;;
60233;SDS011;49514;43.538;-5.708;2022-12-10T22:38:24;28.42;;;8.77;;
60233;SDS011;49514;43.538;-5.708;2022-12-10T22:40:51;22.42;;;8.02;;
60233;SDS011;49514;43.538;-5.708;2022-12-10T22:43:18;19.35;;;7.47;;
60233;SDS011;49514;43.538;-5.708;2022-12-10T22:45:45;19.95;;;9.52;;
60233;SDS011;49514;43.538;-5.708;2022-12-10T22:48:11;24.33;;;8.10;;
60233;SDS011;49514;43.538;-5.708;2022-12-10T22:50:38;19.92;;;7.53;;
60233;SDS011;49514;43.538;-5.708;2022-12-10T22:53:05;13.52;;;6.95;;
60233;SDS011;49514;43.538;-5.708;2022-12-10T22:55:33;14.88;;;6.75;;
60233;SDS011;49514;43.538;-5.708;2022-12-10T22:58:00;13.90;;;6.50;;
60233;SDS011;49514;43.538;-5.708;2022-12-10T23:00:28;11.48;;;6.60;;
60233;SDS011;49514;43.538;-5.708;2022-12-10T23:02:55;15.02;;;6.80;;
60233;SDS011;49514;43.538;-5.708;2022-12-10T23:05:22;16.88;;;7.40;;
60233;SDS011;49514;43.538;-5.708;2022-12-10T23:07:49;12.48;;;6.63;;
60233;SDS011;49514;43.538;-5.708;2022-12-10T23:10:16;19.33;;;7.00;;
60233;SDS011;49514;43.538;-5.708;2022-12-10T23:12:43;16.15;;;6.70;;
60233;SDS011;49514;43.538;-5.708;2022-12-10T23:15:28;13.90;;;6.85;;
60233;SDS011;49514;43.538;-5.708;2022-12-10T23:17:55;16.00;;;7.72;;
60233;SDS011;49514;43.538;-5.708;2022-12-10T23:20:22;16.60;;;7.03;;
60233;SDS011;49514;43.538;-5.708;2022-12-10T23:22:49;18.83;;;7.65;;
60233;SDS011;49514;43.538;-5.708;2022-12-10T23:25:17;24.17;;;8.10;;
60233;SDS011;49514;43.538;-5.708;2022-12-10T23:27:44;16.85;;;8.60;;
60233;SDS011;49514;43.538;-5.708;2022-12-10T23:30:10;14.65;;;7.80;;
60233;SDS011;49514;43.538;-5.708;2022-12-10T23:32:38;15.70;;;8.10;;
60233;SDS011;49514;43.538;-5.708;2022-12-10T23:35:05;16.17;;;8.95;;
60233;SDS011;49514;43.538;-5.708;2022-12-10T23:37:34;15.40;;;7.50;;
60233;SDS011;49514;43.538;-5.708;2022-12-10T23:40:00;18.85;;;8.35;;
60233;SDS011;49514;43.538;-5.708;2022-12-10T23:42:28;19.33;;;8.25;;
60233;SDS011;49514;43.538;-5.708;2022-12-10T23:44:57;18.73;;;7.65;;
60233;SDS011;49514;43.538;-5.708;2022-12-10T23:47:25;20.30;;;7.95;;
60233;SDS011;49514;43.538;-5.708;2022-12-10T23:49:53;26.10;;;8.07;;
60233;SDS011;49514;43.538;-5.708;2022-12-10T23:52:21;29.60;;;9.05;;
60233;SDS011;49514;43.538;-5.708;2022-12-10T23:54:48;37.17;;;10.50;;
60233;SDS011;49514;43.538;-5.708;2022-12-10T23:57:15;28.88;;;10.63;;
60233;SDS011;49514;43.538;-5.708;2022-12-10T23:59:42;41.70;;;11.55;;
